createdAt,value
2019-05-02T00:00:50.253Z,9.06
2019-05-02T00:03:19.720Z,9.11
2019-05-02T00:05:49.425Z,9.05
2019-05-02T00:08:19.833Z,9.09
2019-05-02T00:10:50.338Z,9.10
2019-05-02T00:13:20.500Z,9.07
2019-05-02T00:15:51.040Z,9.07
2019-05-02T00:18:22.221Z,9.13
2019-05-02T00:20:51.974Z,9.11
2019-05-02T00:23:22.946Z,9.10
2019-05-02T00:25:54.303Z,9.12
2019-05-02T00:28:23.964Z,9.23
2019-05-02T00:30:53.561Z,9.17
2019-05-02T00:33:22.996Z,9.27
2019-05-02T00:35:52.421Z,9.21
2019-05-02T00:38:21.871Z,9.21
2019-05-02T00:40:51.481Z,9.13
2019-05-02T00:43:20.951Z,9.07
2019-05-02T00:45:50.457Z,9.16
2019-05-02T00:48:24.405Z,9.19
2019-05-02T00:50:53.868Z,9.23
2019-05-02T00:53:23.333Z,9.21
2019-05-02T00:55:52.740Z,9.25
2019-05-02T00:58:22.271Z,9.31
2019-05-02T01:00:54.914Z,9.29
2019-05-02T01:03:25.969Z,9.25
2019-05-02T01:05:55.591Z,9.32
2019-05-02T01:08:26.409Z,9.29
2019-05-02T01:10:56.770Z,9.27
2019-05-02T01:13:27.066Z,9.27
2019-05-02T01:15:56.521Z,9.22
2019-05-02T01:18:25.920Z,9.32
2019-05-02T01:20:58.057Z,9.34
2019-05-02T01:23:29.552Z,9.37
2019-05-02T01:25:59.129Z,9.41
2019-05-02T01:28:49.164Z,9.30
2019-05-02T01:31:20.288Z,9.26
2019-05-02T01:33:51.454Z,9.26
2019-05-02T01:36:22.619Z,9.31
2019-05-02T01:38:52.479Z,9.38
2019-05-02T01:41:23.911Z,9.35
2019-05-02T01:43:55.007Z,9.25
2019-05-02T01:46:24.291Z,9.27
2019-05-02T01:48:53.695Z,9.31
2019-05-02T01:51:23.231Z,9.30
2019-05-02T01:53:54.252Z,9.32
2019-05-02T01:56:28.659Z,9.33
2019-05-02T01:58:57.720Z,9.25
2019-05-02T02:01:27.171Z,9.27
2019-05-02T02:03:56.577Z,9.20
2019-05-02T02:06:26.004Z,9.27
2019-05-02T02:08:55.668Z,9.26
2019-05-02T02:11:28.318Z,9.41
2019-05-02T02:13:56.477Z,9.43
2019-05-02T02:16:26.174Z,9.42
2019-05-02T02:18:59.126Z,9.37
2019-05-02T02:21:32.755Z,9.39
2019-05-02T02:24:13.160Z,9.41
2019-05-02T02:26:43.627Z,9.35
2019-05-02T02:29:13.976Z,9.36
2019-05-02T02:31:46.446Z,9.41
2019-05-02T02:34:14.572Z,9.39
2019-05-02T02:36:44.012Z,9.42
2019-05-02T02:39:16.809Z,9.42
2019-05-02T02:41:45.492Z,9.39
2019-05-02T02:44:17.930Z,9.38
2019-05-02T02:46:49.334Z,9.40
2019-05-02T02:49:21.681Z,9.44
2019-05-02T02:51:50.166Z,9.37
2019-05-02T02:54:19.706Z,9.44
2019-05-02T02:56:49.172Z,9.45
2019-05-02T02:59:26.405Z,9.52
2019-05-02T03:01:49.898Z,9.47
2019-05-02T03:04:19.504Z,9.42
2019-05-02T03:06:49.478Z,9.48
2019-05-02T03:09:25.938Z,9.50
2019-05-02T03:12:02.229Z,9.48
2019-05-02T03:14:31.861Z,9.44
2019-05-02T03:17:01.269Z,9.54
2019-05-02T03:19:30.900Z,9.47
2019-05-02T03:22:01.481Z,9.54
2019-05-02T03:24:36.821Z,9.64
2019-05-02T03:27:03.037Z,9.59
2019-05-02T03:29:41.387Z,9.59
2019-05-02T03:32:14.354Z,9.49
2019-05-02T03:34:47.205Z,9.45
2019-05-02T03:37:10.416Z,9.43
2019-05-02T03:39:38.328Z,9.44
2019-05-02T03:42:07.802Z,9.42
2019-05-02T03:44:37.461Z,9.50
2019-05-02T03:47:06.856Z,9.47
2019-05-02T03:49:40.910Z,9.44
2019-05-02T03:52:07.529Z,9.39
2019-05-02T03:54:48.644Z,9.42
2019-05-02T03:57:08.230Z,9.39
2019-05-02T03:59:39.386Z,9.43
2019-05-02T04:02:14.069Z,9.38
2019-05-02T04:04:41.022Z,9.28
2019-05-02T04:07:10.858Z,9.37
2019-05-02T04:09:42.533Z,9.34
2019-05-02T04:12:19.084Z,9.30
2019-05-02T04:14:43.716Z,9.32
2019-05-02T04:17:13.412Z,9.36
2019-05-02T04:19:43.691Z,9.37
2019-05-02T04:22:15.532Z,9.39
2019-05-02T04:24:54.655Z,9.41
2019-05-02T04:27:16.976Z,9.43
2019-05-02T04:29:46.661Z,9.54
2019-05-02T04:32:16.066Z,9.59
2019-05-02T04:34:49.128Z,9.54
2019-05-02T04:37:17.569Z,9.53
2019-05-02T04:39:49.149Z,9.60
2019-05-02T04:42:22.088Z,9.58
2019-05-02T04:45:12.873Z,9.59
2019-05-02T04:47:21.768Z,9.56
2019-05-02T04:49:52.213Z,9.60
2019-05-02T04:52:21.799Z,9.64
2019-05-02T04:54:51.241Z,9.59
2019-05-02T04:57:26.200Z,9.58
2019-05-02T05:00:02.385Z,9.56
2019-05-02T05:02:34.629Z,9.61
2019-05-02T05:04:54.064Z,9.63
2019-05-02T05:07:23.821Z,9.73
2019-05-02T05:09:58.088Z,9.71
2019-05-02T05:12:24.436Z,9.77
2019-05-02T05:14:53.975Z,9.67
2019-05-02T05:17:25.189Z,9.86
2019-05-02T05:19:54.799Z,9.78
2019-05-02T05:22:24.203Z,9.76
2019-05-02T05:24:55.295Z,9.88
2019-05-02T05:27:24.786Z,9.91
2019-05-02T05:29:59.561Z,9.83
2019-05-02T05:32:25.374Z,9.94
2019-05-02T05:34:54.831Z,10.01
2019-05-02T05:37:24.402Z,9.99
2019-05-02T05:39:53.847Z,10.10
2019-05-02T05:42:30.105Z,10.07
2019-05-02T05:44:54.478Z,10.11
2019-05-02T05:47:24.102Z,10.03
2019-05-02T05:49:57.676Z,9.96
2019-05-02T05:52:24.721Z,10.02
2019-05-02T05:54:54.893Z,9.95
2019-05-02T05:57:24.333Z,10.06
2019-05-02T05:59:53.751Z,10.05
2019-05-02T06:02:23.204Z,10.04
2019-05-02T06:04:55.199Z,10.09
2019-05-02T06:07:24.308Z,10.22
2019-05-02T06:09:53.831Z,10.30
2019-05-02T06:12:26.095Z,10.32
2019-05-02T06:14:56.245Z,10.09
2019-05-02T06:17:28.657Z,10.27
2019-05-02T06:19:56.930Z,10.18
2019-05-02T06:22:26.433Z,10.32
2019-05-02T06:24:56.103Z,10.31
2019-05-02T06:27:30.253Z,10.22
2019-05-02T06:29:57.550Z,10.35
2019-05-02T06:32:27.059Z,10.42
2019-05-02T06:34:56.505Z,10.46
2019-05-02T06:37:27.450Z,10.49
2019-05-02T06:39:56.924Z,10.62
2019-05-02T06:42:27.596Z,10.58
2019-05-02T06:44:59.861Z,10.78
2019-05-02T06:47:28.922Z,10.76
2019-05-02T06:50:01.072Z,10.62
2019-05-02T06:52:32.842Z,10.66
2019-05-02T06:55:02.189Z,10.67
2019-05-02T06:57:31.767Z,10.67
2019-05-02T07:00:01.203Z,10.81
2019-05-02T07:02:33.533Z,10.83
2019-05-02T07:05:02.022Z,10.87
2019-05-02T07:07:36.571Z,10.86
2019-05-02T07:10:02.734Z,10.97
2019-05-02T07:12:32.238Z,10.99
2019-05-02T07:15:03.791Z,11.02
2019-05-02T07:17:46.561Z,11.19
2019-05-02T07:20:16.298Z,11.24
2019-05-02T07:22:45.880Z,11.54
2019-05-02T07:25:18.275Z,11.86
2019-05-02T07:27:47.805Z,12.18
2019-05-02T07:30:18.254Z,12.50
2019-05-02T07:32:47.765Z,12.97
2019-05-02T07:35:19.071Z,13.16
2019-05-02T07:37:50.045Z,12.89
2019-05-02T07:40:20.293Z,12.91
2019-05-02T07:42:49.806Z,12.79
2019-05-02T07:45:19.767Z,12.88
2019-05-02T07:47:49.379Z,12.96
2019-05-02T07:50:19.060Z,13.25
2019-05-02T07:52:48.491Z,13.38
2019-05-02T07:55:17.923Z,13.49
2019-05-02T07:57:47.806Z,13.92
2019-05-02T08:00:19.349Z,14.22
2019-05-02T08:02:48.858Z,15.14
2019-05-02T08:05:21.495Z,15.27
2019-05-02T08:07:53.273Z,15.31
2019-05-02T08:10:26.244Z,15.26
2019-05-02T08:12:55.930Z,15.39
2019-05-02T08:15:25.519Z,15.17
2019-05-02T08:17:55.241Z,14.85
2019-05-02T08:20:24.915Z,14.92
2019-05-02T08:22:54.358Z,14.82
2019-05-02T08:25:23.866Z,14.72
2019-05-02T08:27:57.703Z,14.87
2019-05-02T08:30:28.863Z,14.36
2019-05-02T08:32:58.319Z,14.42
2019-05-02T08:35:28.410Z,14.47
2019-05-02T08:37:58.632Z,13.99
2019-05-02T08:40:28.153Z,13.90
2019-05-02T08:42:57.601Z,13.57
2019-05-02T08:45:27.116Z,13.30
2019-05-02T08:48:00.274Z,13.03
2019-05-02T08:50:31.935Z,13.03
2019-05-02T08:53:00.490Z,13.18
2019-05-02T08:55:30.095Z,12.97
2019-05-02T08:57:59.790Z,13.10
2019-05-02T09:00:32.220Z,13.20
2019-05-02T09:03:02.759Z,13.24
2019-05-02T09:05:31.545Z,13.97
2019-05-02T09:08:00.964Z,14.29
2019-05-02T09:10:30.885Z,14.17
2019-05-02T09:13:02.532Z,14.49
2019-05-02T09:15:32.621Z,14.19
2019-05-02T09:18:02.977Z,14.17
2019-05-02T09:20:32.543Z,13.90
2019-05-02T09:23:02.069Z,13.98
2019-05-02T09:25:32.397Z,13.82
2019-05-02T09:28:03.689Z,13.60
2019-05-02T09:30:33.148Z,13.31
2019-05-02T09:33:06.602Z,13.08
2019-05-02T09:35:33.940Z,12.93
2019-05-02T09:38:03.601Z,12.94
2019-05-02T09:40:33.234Z,13.01
2019-05-02T09:43:04.803Z,13.03
2019-05-02T09:45:37.394Z,12.86
2019-05-02T09:48:08.100Z,13.20
2019-05-02T09:50:38.620Z,13.28
2019-05-02T09:53:13.049Z,13.23
2019-05-02T09:55:42.309Z,13.21
2019-05-02T09:58:18.787Z,13.13
2019-05-02T10:00:46.253Z,13.15
2019-05-02T10:03:16.718Z,13.03
2019-05-02T10:05:46.269Z,13.18
2019-05-02T10:08:16.030Z,12.98
2019-05-02T10:10:46.174Z,12.87
2019-05-02T10:13:16.067Z,13.00
2019-05-02T10:15:46.095Z,13.26
2019-05-02T10:18:19.631Z,13.31
2019-05-02T10:20:46.836Z,13.25
2019-05-02T10:23:19.503Z,13.34
2019-05-02T10:25:47.555Z,13.35
2019-05-02T10:28:17.025Z,13.23
2019-05-02T10:30:47.340Z,13.48
2019-05-02T10:33:18.939Z,13.62
2019-05-02T10:35:49.861Z,13.86
2019-05-02T10:38:22.751Z,13.85
2019-05-02T10:40:54.713Z,13.89
2019-05-02T10:43:25.149Z,13.92
2019-05-02T10:45:56.633Z,13.73
2019-05-02T10:48:28.693Z,13.43
2019-05-02T10:51:09.448Z,13.41
2019-05-02T10:53:38.914Z,13.76
2019-05-02T10:56:08.363Z,13.99
2019-05-02T10:58:39.244Z,14.07
2019-05-02T11:01:09.967Z,14.36
2019-05-02T11:03:43.738Z,14.13
2019-05-02T11:06:12.640Z,14.01
2019-05-02T11:08:45.960Z,14.17
2019-05-02T11:11:13.430Z,14.20
2019-05-02T11:14:05.689Z,14.31
2019-05-02T11:16:36.491Z,14.44
2019-05-02T11:19:07.591Z,14.53
2019-05-02T11:21:37.170Z,14.29
2019-05-02T11:24:06.621Z,14.27
2019-05-02T11:26:37.684Z,13.99
2019-05-02T11:29:07.135Z,13.86
2019-05-02T11:31:36.678Z,13.87
2019-05-02T11:34:06.129Z,14.18
2019-05-02T11:36:35.817Z,14.65
2019-05-02T11:39:16.525Z,14.59
2019-05-02T11:41:38.263Z,15.00
2019-05-02T11:44:07.931Z,14.99
2019-05-02T11:46:41.627Z,15.02
2019-05-02T11:49:08.503Z,15.18
2019-05-02T11:51:38.041Z,15.79
2019-05-02T11:54:09.475Z,15.54
2019-05-02T11:56:41.205Z,15.02
2019-05-02T11:59:14.433Z,14.61
2019-05-02T12:01:56.533Z,14.41
2019-05-02T12:04:16.901Z,14.63
2019-05-02T12:06:49.901Z,15.00
2019-05-02T12:09:17.460Z,15.25
2019-05-02T12:11:47.438Z,15.20
2019-05-02T12:14:18.025Z,14.97
2019-05-02T12:16:47.487Z,14.62
2019-05-02T12:19:17.069Z,14.21
2019-05-02T12:21:55.074Z,14.05
2019-05-02T12:24:24.467Z,14.09
2019-05-02T12:26:54.039Z,14.05
2019-05-02T12:29:23.455Z,14.54
2019-05-02T12:31:56.371Z,14.76
2019-05-02T12:34:24.077Z,15.14
2019-05-02T12:36:53.541Z,15.38
2019-05-02T12:39:22.951Z,15.26
2019-05-02T12:41:53.625Z,15.27
2019-05-02T12:44:23.663Z,15.22
2019-05-02T12:46:53.174Z,14.71
2019-05-02T12:49:27.665Z,14.88
2019-05-02T12:51:53.745Z,15.80
2019-05-02T12:54:23.238Z,16.00
2019-05-02T12:56:52.990Z,16.51
2019-05-02T12:59:22.686Z,16.42
2019-05-02T13:01:52.292Z,16.71
2019-05-02T13:04:22.939Z,17.36
2019-05-02T13:06:53.043Z,17.31
2019-05-02T13:09:23.352Z,16.62
2019-05-02T13:11:54.888Z,16.55
2019-05-02T13:14:26.057Z,17.04
2019-05-02T13:17:01.278Z,18.39
2019-05-02T13:19:38.160Z,19.00
2019-05-02T13:22:09.641Z,18.60
2019-05-02T13:24:42.323Z,17.30
2019-05-02T13:27:14.960Z,16.76
2019-05-02T13:29:44.645Z,15.54
2019-05-02T13:32:18.753Z,15.29
2019-05-02T13:34:58.172Z,15.50
2019-05-02T13:37:27.622Z,15.53
2019-05-02T13:40:02.702Z,16.41
2019-05-02T13:42:33.698Z,15.90
2019-05-02T13:45:21.968Z,15.69
2019-05-02T13:47:52.997Z,15.47
2019-05-02T13:50:22.689Z,16.17
2019-05-02T13:52:57.731Z,15.08
2019-05-02T13:55:24.876Z,14.78
2019-05-02T13:57:54.439Z,14.83
2019-05-02T14:00:25.857Z,14.74
2019-05-02T14:02:55.656Z,14.78
2019-05-02T14:05:25.129Z,14.88
2019-05-02T14:07:57.243Z,16.40
2019-05-02T14:10:38.573Z,15.42
2019-05-02T14:13:03.437Z,14.09
2019-05-02T14:15:34.516Z,13.62
2019-05-02T14:18:04.144Z,14.02
2019-05-02T14:20:33.667Z,14.08
2019-05-02T14:23:03.175Z,14.24
2019-05-02T14:25:32.638Z,14.54
2019-05-02T14:28:02.903Z,14.24
2019-05-02T14:30:39.398Z,14.11
2019-05-02T14:33:05.727Z,14.40
2019-05-02T14:35:36.785Z,15.64
2019-05-02T14:38:13.657Z,15.64
2019-05-02T14:40:52.056Z,15.88
2019-05-02T14:43:44.558Z,15.66
2019-05-02T14:46:12.611Z,14.90
2019-05-02T14:48:45.222Z,14.19
2019-05-02T14:51:16.623Z,13.96
2019-05-02T14:53:48.295Z,13.61
2019-05-02T14:56:25.623Z,13.12
2019-05-02T14:58:55.092Z,13.00
2019-05-02T15:01:26.070Z,13.13
2019-05-02T15:03:58.419Z,13.94
2019-05-02T15:06:27.200Z,14.85
2019-05-02T15:08:56.829Z,15.04
2019-05-02T15:11:30.920Z,14.48
2019-05-02T15:13:57.415Z,13.32
2019-05-02T15:16:39.634Z,12.46
2019-05-02T15:18:58.114Z,11.98
2019-05-02T15:21:29.157Z,11.68
2019-05-02T15:23:58.590Z,11.89
2019-05-02T15:26:31.287Z,11.72
2019-05-02T15:28:59.123Z,11.66
2019-05-02T15:31:33.726Z,11.66
2019-05-02T15:34:05.191Z,12.22
2019-05-02T15:36:37.118Z,12.64
2019-05-02T15:41:44.904Z,12.18
2019-05-02T15:44:12.862Z,12.16
2019-05-02T15:46:42.548Z,12.92
2019-05-02T15:49:12.401Z,13.07
2019-05-02T15:51:43.660Z,12.98
2019-05-02T15:54:13.263Z,12.20
2019-05-02T15:57:00.431Z,11.93
2019-05-02T15:59:37.507Z,11.96
2019-05-02T16:02:07.687Z,12.00
2019-05-02T16:04:41.836Z,11.63
2019-05-02T16:07:12.185Z,11.69
2019-05-02T16:09:42.077Z,11.27
2019-05-02T16:12:12.248Z,11.20
2019-05-02T16:14:42.612Z,10.94
2019-05-02T16:17:12.594Z,10.98
2019-05-02T16:19:46.718Z,11.07
2019-05-02T16:22:17.157Z,11.08
2019-05-02T16:24:48.720Z,10.77
2019-05-02T16:27:21.847Z,10.54
2019-05-02T16:29:49.155Z,10.58
2019-05-02T16:32:23.205Z,10.41
2019-05-02T16:34:54.985Z,10.20
2019-05-02T16:37:24.835Z,9.96
2019-05-02T16:39:54.300Z,9.90
2019-05-02T16:42:23.689Z,9.98
2019-05-02T16:44:54.884Z,9.73
2019-05-02T16:47:24.496Z,9.74
2019-05-02T16:49:56.465Z,9.58
2019-05-02T16:52:25.408Z,9.56
2019-05-02T16:54:55.440Z,9.58
2019-05-02T16:57:24.853Z,9.71
2019-05-02T17:00:01.528Z,9.67
2019-05-02T17:02:25.603Z,9.87
2019-05-02T17:04:55.090Z,9.87
2019-05-02T17:07:26.140Z,9.81
2019-05-02T17:10:17.629Z,9.85
2019-05-02T17:12:47.215Z,9.60
2019-05-02T17:15:36.325Z,9.45
2019-05-02T17:18:12.767Z,9.43
2019-05-02T17:20:38.056Z,9.60
2019-05-02T17:23:07.920Z,9.61
2019-05-02T17:25:38.901Z,9.67
2019-05-02T17:28:10.540Z,9.66
2019-05-02T17:30:42.537Z,9.71
2019-05-02T17:33:12.791Z,9.87
2019-05-02T17:35:49.616Z,9.67
2019-05-02T17:38:13.137Z,9.77
2019-05-02T17:40:42.553Z,9.73
2019-05-02T17:43:12.192Z,9.81
2019-05-02T17:45:41.679Z,9.77
2019-05-02T17:48:16.623Z,9.60
2019-05-02T17:50:49.470Z,9.55
2019-05-02T17:53:17.842Z,9.53
2019-05-02T17:55:48.008Z,9.41
2019-05-02T17:58:17.454Z,9.36
2019-05-02T18:00:54.468Z,9.37
2019-05-02T18:03:24.268Z,9.35
2019-05-02T18:05:53.483Z,9.28
2019-05-02T18:08:23.041Z,9.38
2019-05-02T18:10:58.522Z,9.43
2019-05-02T18:13:23.812Z,9.40
2019-05-02T18:15:53.572Z,9.38
2019-05-02T18:18:23.093Z,9.34
2019-05-02T18:20:53.011Z,9.26
2019-05-02T18:23:25.861Z,9.17
2019-05-02T18:25:57.435Z,9.22
2019-05-02T18:28:26.445Z,9.12
2019-05-02T18:30:57.205Z,9.10
2019-05-02T18:33:27.166Z,9.03
2019-05-02T18:35:56.666Z,9.03
2019-05-02T18:38:26.241Z,9.05
2019-05-02T18:41:00.438Z,9.05
2019-05-02T18:43:27.227Z,9.02
2019-05-02T18:45:58.158Z,9.01
2019-05-02T18:48:27.881Z,9.03
2019-05-02T18:50:57.398Z,9.03
2019-05-02T18:53:27.474Z,9.00
2019-05-02T18:56:01.597Z,9.02
2019-05-02T18:58:28.198Z,9.07
2019-05-02T19:00:59.223Z,9.03
2019-05-02T19:03:28.698Z,9.03
2019-05-02T19:05:58.498Z,8.96
2019-05-02T19:08:33.666Z,8.92
2019-05-02T19:11:08.983Z,8.92
2019-05-02T19:13:37.546Z,8.89
2019-05-02T19:16:04.541Z,8.79
2019-05-02T19:18:34.186Z,8.75
2019-05-02T19:21:04.850Z,8.63
2019-05-02T19:23:35.498Z,8.51
2019-05-02T19:26:10.019Z,8.48
2019-05-02T19:28:45.193Z,8.42
2019-05-02T19:31:14.768Z,8.34
2019-05-02T19:33:44.261Z,8.32
2019-05-02T19:36:16.188Z,8.30
2019-05-02T19:38:45.814Z,8.30
2019-05-02T19:41:15.702Z,8.34
2019-05-02T19:43:49.286Z,8.32
2019-05-02T19:46:16.999Z,8.27
2019-05-02T19:48:46.454Z,8.36
2019-05-02T19:51:18.503Z,8.33
2019-05-02T19:53:51.681Z,8.34
2019-05-02T19:56:18.360Z,8.36
2019-05-02T19:58:47.928Z,8.38
2019-05-02T20:01:22.283Z,8.41
2019-05-02T20:03:48.886Z,8.36
2019-05-02T20:06:18.410Z,8.35
2019-05-02T20:08:47.945Z,8.30
2019-05-02T20:11:18.145Z,8.35
2019-05-02T20:13:47.604Z,8.28
2019-05-02T20:16:22.494Z,8.19
2019-05-02T20:18:52.620Z,8.27
2019-05-02T20:21:27.913Z,8.24
2019-05-02T20:23:57.565Z,8.23
2019-05-02T20:26:27.070Z,8.16
2019-05-02T20:28:56.472Z,8.09
2019-05-02T20:31:25.935Z,8.15
2019-05-02T20:33:56.867Z,8.04
2019-05-02T20:36:27.888Z,8.00
2019-05-02T20:38:57.622Z,7.93
2019-05-02T20:41:28.835Z,7.93
2019-05-02T20:43:58.281Z,7.85
2019-05-02T20:46:27.753Z,7.83
2019-05-02T20:48:57.340Z,7.83
2019-05-02T20:51:26.809Z,7.86
2019-05-02T20:53:56.431Z,7.81
2019-05-02T20:56:25.854Z,7.84
2019-05-02T20:58:56.906Z,7.85
2019-05-02T21:01:26.468Z,7.86
2019-05-02T21:03:56.093Z,7.94
2019-05-02T21:06:40.917Z,7.91
2019-05-02T21:09:07.869Z,7.92
2019-05-02T21:11:37.597Z,7.92
2019-05-02T21:14:07.208Z,7.83
2019-05-02T21:16:37.010Z,7.76
2019-05-02T21:19:06.600Z,7.74
2019-05-02T21:21:40.186Z,7.66
2019-05-02T21:24:09.043Z,7.67
2019-05-02T21:26:38.505Z,7.68
2019-05-02T21:29:07.937Z,7.61
2019-05-02T21:31:37.581Z,7.64
2019-05-02T21:34:07.360Z,7.63
2019-05-02T21:36:37.080Z,7.64
2019-05-02T21:39:11.752Z,7.64
2019-05-02T21:41:42.385Z,7.68
2019-05-02T21:44:13.638Z,7.61
2019-05-02T21:46:43.263Z,7.58
2019-05-02T21:49:14.436Z,7.58
2019-05-02T21:51:45.568Z,7.58
2019-05-02T21:54:19.449Z,7.53
2019-05-02T21:56:56.916Z,7.57
2019-05-02T21:59:26.376Z,7.62
2019-05-02T22:01:57.704Z,7.72
2019-05-02T22:04:27.164Z,7.73
2019-05-02T22:06:56.574Z,7.72
2019-05-02T22:09:27.758Z,7.66
2019-05-02T22:11:57.269Z,7.64
2019-05-02T22:14:26.786Z,7.44
2019-05-02T22:16:56.203Z,7.35
2019-05-02T22:19:26.195Z,7.23
2019-05-02T22:21:55.618Z,7.05
2019-05-02T22:24:25.089Z,6.96
2019-05-02T22:26:54.592Z,6.86
2019-05-02T22:29:24.242Z,6.76
2019-05-02T22:31:54.520Z,6.68
2019-05-02T22:34:24.223Z,6.68
2019-05-02T22:36:54.304Z,6.59
2019-05-02T22:39:43.920Z,6.74
2019-05-02T22:42:13.494Z,6.77
2019-05-02T22:44:42.940Z,6.75
2019-05-02T22:47:14.081Z,6.78
2019-05-02T22:49:45.149Z,6.80
2019-05-02T22:52:14.779Z,6.86
2019-05-02T22:54:44.851Z,6.83
2019-05-02T22:57:14.504Z,6.73
2019-05-02T22:59:44.107Z,6.71
2019-05-02T23:02:15.343Z,6.68
2019-05-02T23:04:44.806Z,6.79
2019-05-02T23:07:14.339Z,6.76
2019-05-02T23:09:43.873Z,6.75
2019-05-02T23:12:13.515Z,6.76
2019-05-02T23:14:43.060Z,6.77
2019-05-02T23:17:12.937Z,6.65
2019-05-02T23:19:42.595Z,6.65
2019-05-02T23:22:12.671Z,6.72
2019-05-02T23:25:02.753Z,6.66
2019-05-02T23:27:42.452Z,6.69
2019-05-02T23:30:14.284Z,6.54
2019-05-02T23:32:43.914Z,6.37
2019-05-02T23:35:16.577Z,6.26
2019-05-02T23:37:46.071Z,6.11
2019-05-02T23:40:16.438Z,6.12
2019-05-02T23:42:47.264Z,6.27
2019-05-02T23:45:16.932Z,6.39
2019-05-02T23:47:46.393Z,6.53
2019-05-02T23:50:16.004Z,6.55
2019-05-02T23:52:45.445Z,6.53
2019-05-02T23:55:15.036Z,6.34
2019-05-02T23:57:44.573Z,6.25
